Flight Track Log - Related Links

Times and Time Zones

All times are in EDT time to prevent confusion due to time zone crossing. See the AAL2007 flight status page for this flight to view local times or setup timezone preferences in your user account.

Time Position Orientation Groundspeed Altitude Reporting Facility
EDT Latitude Longitude Course Direction KTS MPH feet Rate Location/Type
Sat 06:09:13 PM 41.9333 -87.9333 254° West 192 221 2,700  Level Chicago TRACON
Sat 06:10:07 PM 41.8833 -87.9833 217° Southwest 246 283 4,500 1,158 Climbing Chicago TRACON
Sat 06:11:00 PM 41.9000 -88.2106 270° West  Level FlightAware Approximate
Sat 06:11:07 PM 41.8333 -88.0500 225° Southwest 268 308 4,900  Level Chicago TRACON
Sat 06:12:00 PM 41.8679 -88.3554 242° Southwest  Level FlightAware Approximate
Sat 06:12:08 PM 41.8333 -88.1500 270° West 277 319 8,000  Level Chicago TRACON
Sat 06:13:00 PM 41.8300 -88.4987 254° West  Level FlightAware Approximate
Sat 06:13:17 PM 41.8536 -88.2547 285° West 303 349 11,200  Level Chicago Center
Sat 06:14:00 PM 41.7976 -88.6452 254° West  Level FlightAware Approximate
Sat 06:14:18 PM 41.8492 -88.3647 267° West 302 348 14,000  Level Chicago Center
Sat 06:15:20 PM 41.8403 -88.4806 264° West 314 361 16,200 2,129 Climbing Chicago Center
Sat 06:16:22 PM 41.8011 -88.6308 251° West 360 414 18,400 2,081 Climbing Chicago Center
Sat 06:17:24 PM 41.7711 -88.7625 253° West 373 429 20,500 1,951 Climbing Chicago Center
Sat 06:18:25 PM 41.7400 -88.8978 253° West 381 438 22,400 2,049 Climbing Chicago Center
Sat 06:19:27 PM 41.7078 -89.0381 253° West 392 451 24,700 1,694 Climbing Chicago Center
Sat 06:20:29 PM 41.6750 -89.1806 253° West 401 461 25,900 1,403 Climbing Chicago Center
Sat 06:21:31 PM 41.6386 -89.3300 252° West 413 475 27,600 1,659 Climbing Chicago Center
Sat 06:22:32 PM 41.5956 -89.5131 253° West 426 490 29,300 1,756 Climbing Chicago Center
Sat 06:23:34 PM 41.5581 -89.6708 252° West 439 505 31,200 1,597 Climbing Chicago Center
Sat 06:24:36 PM 41.5222 -89.8228 253° West 434 499 32,600 1,258 Climbing Chicago Center
Sat 06:25:38 PM 41.4861 -89.9728 252° West 429 494 33,800 683 Climbing Chicago Center
Sat 06:26:39 PM 41.4503 -90.1219 252° West 425 489 34,000 98 Climbing Chicago Center
Sat 06:27:41 PM 41.4139 -90.2692 252° West 422 486 34,000  Level Chicago Center
Sat 06:28:43 PM 41.3775 -90.4175 252° West 423 487 34,000  Level Chicago Center
Sat 06:29:44 PM 41.3339 -90.5953 252° West 423 487 34,000  Level Chicago Center
Sat 06:30:46 PM 41.2678 -90.7311 237° Southwest 431 496 34,000  Level Chicago Center
Sat 06:31:48 PM 41.1950 -90.8544 232° Southwest 427 491 34,000  Level Chicago Center
Sat 06:32:49 PM 41.1219 -90.9772 232° Southwest 427 491 34,000  Level Chicago Center
Sat 06:33:51 PM 41.0483 -91.1008 232° Southwest 429 494 34,000  Level Chicago Center
Sat 06:34:53 PM 40.9736 -91.2250 231° Southwest 430 495 34,000  Level Chicago Center
Sat 06:35:54 PM 40.8917 -91.3600 231° Southwest 428 493 34,000  Level Chicago Center
Sat 06:36:56 PM 40.8189 -91.4825 232° Southwest 428 493 34,000  Level Chicago Center
Sat 06:37:57 PM 40.7450 -91.6039 231° Southwest 427 491 34,000  Level Chicago Center
Sat 06:38:59 PM 40.6717 -91.7258 232° Southwest 427 491 34,000  Level Chicago Center
Sat 06:39:55 PM 40.5961 -91.8458 230° Southwest 427 491 34,000  Level Kansas City Center
Sat 06:40:56 PM 40.5244 -91.9647 232° Southwest 421 484 34,000  Level Kansas City Center
Sat 06:41:58 PM 40.4531 -92.0808 231° Southwest 413 475 34,000  Level Kansas City Center
Sat 06:43:00 PM 40.3669 -92.2197 231° Southwest 412 474 34,000  Level Kansas City Center
Sat 06:44:01 PM 40.2950 -92.3369 231° Southwest 412 474 34,000  Level Kansas City Center
Sat 06:45:03 PM 40.2206 -92.4533 230° Southwest 414 476 34,000  Level Kansas City Center
Sat 06:46:04 PM 40.1497 -92.5683 231° Southwest 420 483 34,000  Level Kansas City Center
Sat 06:47:06 PM 40.0544 -92.6767 221° Southwest 422 486 34,000  Level Kansas City Center
Sat 06:48:08 PM 39.9617 -92.7739 219° Southwest 428 493 34,000  Level Kansas City Center
Sat 06:49:09 PM 39.8686 -92.8708 219° Southwest 429 494 34,000  Level Kansas City Center
Sat 06:50:11 PM 39.7764 -92.9694 219° Southwest 430 495 34,000  Level Kansas City Center
Sat 06:51:12 PM 39.6828 -93.0647 218° Southwest 430 495 34,000  Level Kansas City Center
Sat 06:52:14 PM 39.5697 -93.1797 218° Southwest 432 497 34,000  Level Kansas City Center
Sat 06:53:15 PM 39.4758 -93.2761 218° Southwest 433 498 34,000  Level Kansas City Center
Sat 06:54:17 PM 39.3839 -93.3728 219° Southwest 431 496 34,000  Level Kansas City Center
Sat 06:55:18 PM 39.2894 -93.4700 219° Southwest 433 498 34,000  Level Kansas City Center
Sat 06:56:20 PM 39.1936 -93.5667 218° Southwest 432 497 34,000  Level Kansas City Center
Sat 06:57:21 PM 39.0919 -93.6728 219° Southwest 428 493 34,000  Level Kansas City Center
Sat 06:58:23 PM 39.0022 -93.7628 218° Southwest 427 491 34,000  Level Kansas City Center
Sat 06:59:24 PM 38.8972 -93.8694 218° Southwest 429 494 34,000  Level Kansas City Center
Sat 07:00:26 PM 38.8081 -93.9608 219° Southwest 428 493 34,000  Level Kansas City Center
Sat 07:01:27 PM 38.7167 -94.0506 217° Southwest 430 495 34,000  Level Kansas City Center
Sat 07:02:29 PM 38.6131 -94.1553 218° Southwest 425 489 34,000  Level Kansas City Center
Sat 07:03:30 PM 38.5242 -94.2428 218° Southwest 422 486 34,000  Level Kansas City Center
Sat 07:04:32 PM 38.4194 -94.3456 218° Southwest 423 487 34,000  Level Kansas City Center
Sat 07:05:33 PM 38.3308 -94.4322 218° Southwest 420 483 34,000  Level Kansas City Center
Sat 07:06:35 PM 38.2389 -94.5147 215° Southwest 421 484 34,000  Level Kansas City Center
Sat 07:07:36 PM 38.1189 -94.5858 205° Southwest 433 498 34,000  Level Kansas City Center
Sat 07:08:38 PM 38.0172 -94.6522 207° Southwest 427 491 34,000  Level Kansas City Center
Sat 07:09:39 PM 37.8983 -94.7275 207° Southwest 427 491 34,000  Level Kansas City Center
Sat 07:10:41 PM 37.7886 -94.7697 197° South 430 495 34,000  Level Kansas City Center
Sat 07:11:42 PM 37.6800 -94.8189 200° South 430 495 34,000  Level Kansas City Center
Sat 07:12:44 PM 37.5683 -94.8653 198° South 429 494 34,000  Level Kansas City Center
Sat 07:13:45 PM 37.4333 -94.9244 199° South 428 493 34,000  Level Kansas City Center
Sat 07:14:46 PM 37.3214 -94.9739 199° South 425 489 34,000  Level Kansas City Center
Sat 07:15:48 PM 37.2081 -95.0228 199° South 428 493 34,000  Level Kansas City Center
Sat 07:16:49 PM 37.0956 -95.0731 200° South 428 493 34,000  Level Kansas City Center
Sat 07:17:51 PM 36.9836 -95.1211 199° South 426 490 34,000  Level Kansas City Center
Sat 07:18:52 PM 36.8714 -95.1692 199° South 425 489 34,000  Level Kansas City Center
Sat 07:19:53 PM 36.7603 -95.2175 199° South 423 487 34,000  Level Kansas City Center
Sat 07:20:55 PM 36.6481 -95.2661 199° South 424 488 34,000  Level Kansas City Center
Sat 07:21:56 PM 36.5281 -95.3172 199° South 424 488 34,000  Level Kansas City Center
Sat 07:22:58 PM 36.4150 -95.3647 199° South 426 490 34,000  Level Kansas City Center
Sat 07:23:59 PM 36.3036 -95.4094 198° South 425 489 34,000  Level Kansas City Center
Sat 07:25:01 PM 36.1969 -95.4575 200° South 417 480 34,000  Level Kansas City Center
Sat 07:26:02 PM 36.0889 -95.5039 199° South 412 474 34,000  Level Kansas City Center
Sat 07:27:04 PM 35.9772 -95.5506 199° South 412 474 34,000  Level Kansas City Center
Sat 07:28:05 PM 35.8692 -95.5958 199° South 411 473 34,000  Level Kansas City Center
Sat 07:29:07 PM 35.7400 -95.6497 199° South 408 470 34,000  Level Kansas City Center
Sat 07:30:08 PM 35.6311 -95.6953 199° South 411 473 34,000  Level Kansas City Center
Sat 07:31:07 PM 35.5244 -95.7431 200° South 417 480 34,000  Level Fort Worth Center
Sat 07:32:07 PM 35.4186 -95.7883 199° South 412 474 34,000  Level Fort Worth Center
Sat 07:33:07 PM 35.3128 -95.8311 198° South 407 468 34,000  Level Fort Worth Center
Sat 07:34:07 PM 35.2278 -95.8683 200° South 407 468 34,000  Level Fort Worth Center
Sat 07:35:07 PM 35.0969 -95.9164 197° South 402 463 34,000  Level Fort Worth Center
Sat 07:36:07 PM 34.9972 -95.9561 198° South 397 457 34,000  Level Fort Worth Center
Sat 07:37:07 PM 34.8914 -96.0011 199° South 397 457 34,000  Level Fort Worth Center
Sat 07:38:07 PM 34.7878 -96.0431 198° South 397 457 34,000  Level Fort Worth Center
Sat 07:39:07 PM 34.6839 -96.0853 198° South 402 463 34,000  Level Fort Worth Center
Sat 07:40:07 PM 34.5800 -96.1297 199° South 402 463 34,000  Level Fort Worth Center
Sat 07:41:07 PM 34.4761 -96.1717 198° South 402 463 34,000  Level Fort Worth Center
Sat 07:42:07 PM 34.3681 -96.2158 199° South 402 463 34,000  Level Fort Worth Center
Sat 07:43:07 PM 34.2639 -96.2575 198° South 402 463 34,000  Level Fort Worth Center
Sat 07:44:07 PM 34.1622 -96.3017 200° South 397 457 34,000  Level Fort Worth Center
Sat 07:45:07 PM 34.0686 -96.3378 198° South 384 442 34,000  Level Fort Worth Center
Sat 07:46:07 PM 33.9644 -96.3767 197° South 377 434 34,000  Level Fort Worth Center
Sat 07:47:07 PM 33.8628 -96.4181 199° South 388 447 34,000  Level Fort Worth Center
Sat 07:48:07 PM 33.7628 -96.4592 199° South 388 447 34,000  Level Fort Worth Center
Sat 07:49:07 PM 33.6628 -96.4975 198° South 381 438 34,000  Level Fort Worth Center
Sat 07:50:07 PM 33.5608 -96.5386 199° South 387 445 34,000  Level Fort Worth Center
Sat 07:51:07 PM 33.4611 -96.5769 198° South 380 437 34,000  Level Fort Worth Center
Sat 07:52:07 PM 33.3589 -96.6150 197° South 380 437 34,000  Level Fort Worth Center
Sat 07:53:07 PM 33.2694 -96.6506 198° South 386 444 34,000  Level Fort Worth Center
Sat 07:54:07 PM 33.1631 -96.6864 196° South 386 444 34,000  Level Fort Worth Center
Sat 07:55:07 PM 33.0547 -96.7119 191° South 386 444 34,000  Level Fort Worth Center
Sat 07:56:07 PM 32.9506 -96.7400 193° South 391 450 34,000  Level Fort Worth Center
Sat 07:57:07 PM 32.8422 -96.7731 194° South 391 450 34,000 -350 Level Fort Worth Center
Sat 07:58:07 PM 32.7256 -96.8033 192° South 396 456 33,300 -750 Descending Fort Worth Center
Sat 07:59:07 PM 32.6169 -96.8314 192° South 396 456 32,500 -800 Descending Fort Worth Center
Sat 08:00:07 PM 32.5044 -96.8642 194° South 396 456 31,700 -800 Descending Fort Worth Center
Sat 08:01:07 PM 32.3939 -96.8942 193° South 401 461 30,900 -800 Descending Fort Worth Center
Sat 08:02:07 PM 32.2856 -96.9219 192° South 406 467 30,100 -800 Descending Fort Worth Center
Sat 08:03:07 PM 32.1728 -96.9519 193° South 415 478 29,300 -785 Descending Fort Worth Center
Sat 08:05:18 PM 31.9417 -97.0158 193° South 402 463 27,600 -781 Descending Houston Center
Sat 08:06:19 PM 31.8319 -97.0456 193° South 401 461 26,800 -787 Descending Houston Center
Sat 08:07:20 PM 31.7239 -97.0731 192° South 393 452 26,000 -836 Descending Houston Center
Sat 08:08:21 PM 31.6161 -97.1022 193° South 392 451 25,100 -829 Descending Houston Center
Sat 08:09:23 PM 31.5100 -97.1300 193° South 387 445 24,300 -780 Descending Houston Center
Sat 08:10:24 PM 31.4050 -97.1589 193° South 386 444 23,500 -787 Descending Houston Center
Sat 08:11:25 PM 31.2967 -97.1856 192° South 390 449 22,700 -885 Descending Houston Center
Sat 08:12:26 PM 31.1928 -97.2153 194° South 383 441 21,700 -1,574 Descending Houston Center
Sat 08:13:27 PM 31.0942 -97.2564 200° South 375 432 19,500 -2,390 Descending Houston Center
Sat 08:14:29 PM 30.9844 -97.2989 198° South 358 412 16,800 -2,439 Descending Houston Center
Sat 08:15:30 PM 30.8936 -97.3331 198° South 356 410 14,500 -1,820 Descending Houston Center
Sat 08:16:31 PM 30.8061 -97.3678 199° South 335 386 13,100 -1,672 Descending Houston Center
Sat 08:17:32 PM 30.7336 -97.4142 209° Southwest 299 344 11,100 -1,820 Descending Houston Center
Sat 08:18:33 PM 30.6569 -97.4600 207° Southwest 304 350 9,400 -1,561 Descending Houston Center
Sat 08:19:35 PM 30.5839 -97.5047 208° Southwest 297 342 7,900 -1,415 Descending Houston Center
Sat 08:20:36 PM 30.5117 -97.5475 207° Southwest 291 335 6,500 -1,377 Descending Houston Center
Sat 08:21:37 PM 30.4433 -97.5900 208° Southwest 281 323 5,100 -1,377 Descending Houston Center

Login

Don't have an account? Register now (free) for customized features, flight alerts, and more!